Weather at Montague Harbour Seaplane Base

Public forecast

Using degrees Celsius for public forecast. Weather courtesy of forecast.io.

Closest aviation weather report (METAR) to Montague Harbour Seaplane Base

Closest report is Victoria International Airport, 14.8 nm (27.4 km) S.

2024/05/21 01:00 (retrieved 22 minutes ago)

CYYJ 210100Z 05008KT 30SM FEW040 BKN240 15/07 A3016 RMK SC1CI7 SC TR SLP217

Closest aviation forecast (TAF) to Montague Harbour Seaplane Base

Closest forecast is Victoria Harbour Seaplane Base, 28.1 nm (52.1 km) S.

2024/05/20 21:00 (retrieved 4 hours ago)

TAF CYWH 202040Z 2021/2104 18008KT P6SM FEW030 BKN230 FM210000 22015KT P6SM BKN120 RMK NXT FCST BY 211400Z